sensor_id;sensor_type;location;lat;lon;timestamp;P1;durP1;ratioP1;P2;durP2;ratioP2
26594;SDS011;14238;49.496;8.154;2023-05-07T00:00:37;3.27;;;3.07;;
26594;SDS011;14238;49.496;8.154;2023-05-07T00:03:02;3.27;;;3.07;;
26594;SDS011;14238;49.496;8.154;2023-05-07T00:05:28;3.10;;;2.87;;
26594;SDS011;14238;49.496;8.154;2023-05-07T00:07:54;3.90;;;3.33;;
26594;SDS011;14238;49.496;8.154;2023-05-07T00:10:19;3.40;;;3.20;;
26594;SDS011;14238;49.496;8.154;2023-05-07T00:12:45;2.90;;;2.70;;
26594;SDS011;14238;49.496;8.154;2023-05-07T00:15:10;3.60;;;3.30;;
26594;SDS011;14238;49.496;8.154;2023-05-07T00:17:36;3.30;;;2.60;;
26594;SDS011;14238;49.496;8.154;2023-05-07T00:20:02;3.67;;;3.37;;
26594;SDS011;14238;49.496;8.154;2023-05-07T00:22:29;3.27;;;3.07;;
26594;SDS011;14238;49.496;8.154;2023-05-07T00:24:55;3.73;;;3.53;;
26594;SDS011;14238;49.496;8.154;2023-05-07T00:27:21;3.83;;;3.60;;
26594;SDS011;14238;49.496;8.154;2023-05-07T00:29:47;3.30;;;3.10;;
26594;SDS011;14238;49.496;8.154;2023-05-07T00:32:13;3.37;;;2.90;;
26594;SDS011;14238;49.496;8.154;2023-05-07T00:34:38;3.10;;;3.00;;
26594;SDS011;14238;49.496;8.154;2023-05-07T00:37:04;3.57;;;3.37;;
26594;SDS011;14238;49.496;8.154;2023-05-07T00:39:32;4.10;;;3.30;;
26594;SDS011;14238;49.496;8.154;2023-05-07T00:41:58;3.20;;;3.10;;
26594;SDS011;14238;49.496;8.154;2023-05-07T00:44:23;4.20;;;3.17;;
26594;SDS011;14238;49.496;8.154;2023-05-07T00:46:49;3.70;;;3.40;;
26594;SDS011;14238;49.496;8.154;2023-05-07T00:49:15;3.30;;;3.00;;
26594;SDS011;14238;49.496;8.154;2023-05-07T00:51:40;3.30;;;3.10;;
26594;SDS011;14238;49.496;8.154;2023-05-07T00:54:06;3.20;;;3.00;;
26594;SDS011;14238;49.496;8.154;2023-05-07T00:56:33;3.50;;;3.20;;
26594;SDS011;14238;49.496;8.154;2023-05-07T00:59:00;3.03;;;2.87;;
26594;SDS011;14238;49.496;8.154;2023-05-07T01:01:26;3.23;;;3.00;;
26594;SDS011;14238;49.496;8.154;2023-05-07T01:03:52;3.37;;;3.17;;
26594;SDS011;14238;49.496;8.154;2023-05-07T01:06:18;3.60;;;3.40;;
26594;SDS011;14238;49.496;8.154;2023-05-07T01:08:46;3.50;;;3.07;;
26594;SDS011;14238;49.496;8.154;2023-05-07T01:11:12;3.90;;;3.60;;
26594;SDS011;14238;49.496;8.154;2023-05-07T01:13:38;3.77;;;3.47;;
26594;SDS011;14238;49.496;8.154;2023-05-07T01:16:05;3.73;;;3.50;;
26594;SDS011;14238;49.496;8.154;2023-05-07T01:18:31;3.50;;;3.20;;
26594;SDS011;14238;49.496;8.154;2023-05-07T01:20:57;2.93;;;2.80;;
26594;SDS011;14238;49.496;8.154;2023-05-07T01:23:24;3.50;;;3.30;;
26594;SDS011;14238;49.496;8.154;2023-05-07T01:25:52;3.20;;;3.00;;
26594;SDS011;14238;49.496;8.154;2023-05-07T01:28:18;3.30;;;3.10;;
26594;SDS011;14238;49.496;8.154;2023-05-07T01:30:45;3.27;;;3.07;;
26594;SDS011;14238;49.496;8.154;2023-05-07T01:33:13;3.10;;;2.90;;
26594;SDS011;14238;49.496;8.154;2023-05-07T01:35:41;3.33;;;3.13;;
26594;SDS011;14238;49.496;8.154;2023-05-07T01:38:10;3.20;;;3.00;;
26594;SDS011;14238;49.496;8.154;2023-05-07T01:40:37;4.10;;;3.80;;
26594;SDS011;14238;49.496;8.154;2023-05-07T01:43:02;3.40;;;3.13;;
26594;SDS011;14238;49.496;8.154;2023-05-07T01:45:30;3.43;;;3.23;;
26594;SDS011;14238;49.496;8.154;2023-05-07T01:47:56;3.60;;;3.33;;
26594;SDS011;14238;49.496;8.154;2023-05-07T01:50:24;3.63;;;3.23;;
26594;SDS011;14238;49.496;8.154;2023-05-07T01:52:50;4.80;;;3.33;;
26594;SDS011;14238;49.496;8.154;2023-05-07T01:55:17;3.47;;;3.23;;
26594;SDS011;14238;49.496;8.154;2023-05-07T01:57:42;5.33;;;3.53;;
26594;SDS011;14238;49.496;8.154;2023-05-07T02:00:08;3.23;;;3.03;;
26594;SDS011;14238;49.496;8.154;2023-05-07T02:02:34;4.10;;;3.10;;
26594;SDS011;14238;49.496;8.154;2023-05-07T02:05:00;3.63;;;3.07;;
26594;SDS011;14238;49.496;8.154;2023-05-07T02:07:26;2.90;;;2.70;;
26594;SDS011;14238;49.496;8.154;2023-05-07T02:09:52;4.37;;;3.50;;
26594;SDS011;14238;49.496;8.154;2023-05-07T02:12:18;3.23;;;2.93;;
26594;SDS011;14238;49.496;8.154;2023-05-07T02:14:44;3.23;;;3.03;;
26594;SDS011;14238;49.496;8.154;2023-05-07T02:17:09;3.00;;;2.90;;
26594;SDS011;14238;49.496;8.154;2023-05-07T02:19:35;3.20;;;3.00;;
26594;SDS011;14238;49.496;8.154;2023-05-07T02:22:00;3.87;;;3.57;;
26594;SDS011;14238;49.496;8.154;2023-05-07T02:24:26;3.30;;;3.00;;
26594;SDS011;14238;49.496;8.154;2023-05-07T02:26:51;3.33;;;3.23;;
26594;SDS011;14238;49.496;8.154;2023-05-07T02:29:17;3.07;;;2.87;;
26594;SDS011;14238;49.496;8.154;2023-05-07T02:31:42;3.27;;;3.07;;
26594;SDS011;14238;49.496;8.154;2023-05-07T02:34:08;3.50;;;3.20;;
26594;SDS011;14238;49.496;8.154;2023-05-07T02:36:33;4.03;;;3.60;;
26594;SDS011;14238;49.496;8.154;2023-05-07T02:38:59;3.17;;;2.97;;
26594;SDS011;14238;49.496;8.154;2023-05-07T02:41:25;4.10;;;3.07;;
26594;SDS011;14238;49.496;8.154;2023-05-07T02:43:51;3.10;;;2.80;;
26594;SDS011;14238;49.496;8.154;2023-05-07T02:46:16;3.47;;;3.20;;
26594;SDS011;14238;49.496;8.154;2023-05-07T02:48:42;3.63;;;3.43;;
26594;SDS011;14238;49.496;8.154;2023-05-07T02:51:08;4.57;;;3.50;;
26594;SDS011;14238;49.496;8.154;2023-05-07T02:53:33;3.90;;;3.47;;
26594;SDS011;14238;49.496;8.154;2023-05-07T02:55:59;3.63;;;3.43;;
26594;SDS011;14238;49.496;8.154;2023-05-07T02:58:25;4.13;;;3.83;;
26594;SDS011;14238;49.496;8.154;2023-05-07T03:00:53;3.67;;;3.37;;
26594;SDS011;14238;49.496;8.154;2023-05-07T03:03:19;3.50;;;3.30;;
26594;SDS011;14238;49.496;8.154;2023-05-07T03:05:45;3.70;;;3.50;;
26594;SDS011;14238;49.496;8.154;2023-05-07T03:08:11;3.60;;;3.30;;
26594;SDS011;14238;49.496;8.154;2023-05-07T03:10:38;4.60;;;3.73;;
26594;SDS011;14238;49.496;8.154;2023-05-07T03:13:03;4.87;;;3.77;;
26594;SDS011;14238;49.496;8.154;2023-05-07T03:15:29;4.13;;;3.70;;
26594;SDS011;14238;49.496;8.154;2023-05-07T03:17:55;3.33;;;3.03;;
26594;SDS011;14238;49.496;8.154;2023-05-07T03:20:21;4.17;;;3.70;;
26594;SDS011;14238;49.496;8.154;2023-05-07T03:22:46;3.90;;;3.60;;
26594;SDS011;14238;49.496;8.154;2023-05-07T03:25:12;3.33;;;3.03;;
26594;SDS011;14238;49.496;8.154;2023-05-07T03:27:39;2.87;;;2.77;;
26594;SDS011;14238;49.496;8.154;2023-05-07T03:30:04;6.97;;;3.83;;
26594;SDS011;14238;49.496;8.154;2023-05-07T03:32:31;3.10;;;2.90;;
26594;SDS011;14238;49.496;8.154;2023-05-07T03:34:57;3.83;;;3.63;;
26594;SDS011;14238;49.496;8.154;2023-05-07T03:37:23;3.40;;;3.20;;
26594;SDS011;14238;49.496;8.154;2023-05-07T03:39:48;3.00;;;2.80;;
26594;SDS011;14238;49.496;8.154;2023-05-07T03:42:14;4.23;;;3.27;;
26594;SDS011;14238;49.496;8.154;2023-05-07T03:44:39;3.50;;;3.30;;
26594;SDS011;14238;49.496;8.154;2023-05-07T03:47:05;3.80;;;3.50;;
26594;SDS011;14238;49.496;8.154;2023-05-07T03:49:30;3.40;;;3.20;;
26594;SDS011;14238;49.496;8.154;2023-05-07T03:51:56;2.90;;;2.77;;
26594;SDS011;14238;49.496;8.154;2023-05-07T03:54:22;3.00;;;2.83;;
26594;SDS011;14238;49.496;8.154;2023-05-07T03:56:47;3.40;;;3.20;;
26594;SDS011;14238;49.496;8.154;2023-05-07T03:59:13;3.23;;;3.03;;
26594;SDS011;14238;49.496;8.154;2023-05-07T04:01:38;3.80;;;3.60;;
26594;SDS011;14238;49.496;8.154;2023-05-07T04:04:04;3.90;;;3.70;;
26594;SDS011;14238;49.496;8.154;2023-05-07T04:06:30;3.63;;;3.03;;
26594;SDS011;14238;49.496;8.154;2023-05-07T04:08:56;3.00;;;2.87;;
26594;SDS011;14238;49.496;8.154;2023-05-07T04:11:22;3.50;;;3.23;;
26594;SDS011;14238;49.496;8.154;2023-05-07T04:13:47;3.40;;;3.20;;
26594;SDS011;14238;49.496;8.154;2023-05-07T04:16:13;2.93;;;2.83;;
26594;SDS011;14238;49.496;8.154;2023-05-07T04:18:38;3.43;;;3.23;;
26594;SDS011;14238;49.496;8.154;2023-05-07T04:21:05;3.93;;;3.73;;
26594;SDS011;14238;49.496;8.154;2023-05-07T04:23:30;3.90;;;3.30;;
26594;SDS011;14238;49.496;8.154;2023-05-07T04:25:56;2.90;;;2.57;;
26594;SDS011;14238;49.496;8.154;2023-05-07T04:28:22;3.50;;;3.17;;
26594;SDS011;14238;49.496;8.154;2023-05-07T04:30:47;3.17;;;2.97;;
26594;SDS011;14238;49.496;8.154;2023-05-07T04:33:13;3.23;;;2.93;;
26594;SDS011;14238;49.496;8.154;2023-05-07T04:35:41;4.03;;;3.73;;
26594;SDS011;14238;49.496;8.154;2023-05-07T04:38:07;3.73;;;3.57;;
26594;SDS011;14238;49.496;8.154;2023-05-07T04:40:33;3.87;;;3.67;;
26594;SDS011;14238;49.496;8.154;2023-05-07T04:43:00;3.23;;;2.90;;
26594;SDS011;14238;49.496;8.154;2023-05-07T04:45:26;3.17;;;2.90;;
26594;SDS011;14238;49.496;8.154;2023-05-07T04:47:52;2.90;;;2.67;;
26594;SDS011;14238;49.496;8.154;2023-05-07T04:50:17;3.10;;;2.87;;
26594;SDS011;14238;49.496;8.154;2023-05-07T04:52:44;2.90;;;2.70;;
26594;SDS011;14238;49.496;8.154;2023-05-07T04:55:11;3.10;;;2.90;;
26594;SDS011;14238;49.496;8.154;2023-05-07T04:57:37;3.63;;;3.43;;
26594;SDS011;14238;49.496;8.154;2023-05-07T05:00:05;3.80;;;3.43;;
26594;SDS011;14238;49.496;8.154;2023-05-07T05:02:33;5.73;;;2.90;;
26594;SDS011;14238;49.496;8.154;2023-05-07T05:04:58;3.37;;;3.10;;
26594;SDS011;14238;49.496;8.154;2023-05-07T05:07:24;3.00;;;2.60;;
26594;SDS011;14238;49.496;8.154;2023-05-07T05:09:50;3.33;;;2.93;;
26594;SDS011;14238;49.496;8.154;2023-05-07T05:12:15;3.37;;;3.10;;
26594;SDS011;14238;49.496;8.154;2023-05-07T05:14:41;3.80;;;3.43;;
26594;SDS011;14238;49.496;8.154;2023-05-07T05:17:07;3.73;;;3.53;;
26594;SDS011;14238;49.496;8.154;2023-05-07T05:19:33;3.23;;;3.03;;
26594;SDS011;14238;49.496;8.154;2023-05-07T05:21:58;3.20;;;3.00;;
26594;SDS011;14238;49.496;8.154;2023-05-07T05:24:27;4.43;;;3.30;;
26594;SDS011;14238;49.496;8.154;2023-05-07T05:26:53;3.57;;;3.37;;
26594;SDS011;14238;49.496;8.154;2023-05-07T05:29:19;4.07;;;3.80;;
26594;SDS011;14238;49.496;8.154;2023-05-07T05:31:44;3.80;;;3.50;;
26594;SDS011;14238;49.496;8.154;2023-05-07T05:34:10;3.80;;;3.60;;
26594;SDS011;14238;49.496;8.154;2023-05-07T05:36:36;5.40;;;3.10;;
26594;SDS011;14238;49.496;8.154;2023-05-07T05:39:01;3.60;;;3.40;;
26594;SDS011;14238;49.496;8.154;2023-05-07T05:41:27;3.40;;;3.10;;
26594;SDS011;14238;49.496;8.154;2023-05-07T05:43:52;3.37;;;3.17;;
26594;SDS011;14238;49.496;8.154;2023-05-07T05:46:18;3.10;;;2.90;;
26594;SDS011;14238;49.496;8.154;2023-05-07T05:48:44;2.70;;;2.50;;
26594;SDS011;14238;49.496;8.154;2023-05-07T05:51:09;3.67;;;3.40;;
26594;SDS011;14238;49.496;8.154;2023-05-07T05:53:35;3.73;;;3.53;;
26594;SDS011;14238;49.496;8.154;2023-05-07T05:56:00;3.50;;;3.20;;
26594;SDS011;14238;49.496;8.154;2023-05-07T05:58:26;3.60;;;3.40;;
26594;SDS011;14238;49.496;8.154;2023-05-07T06:00:52;3.80;;;3.60;;
26594;SDS011;14238;49.496;8.154;2023-05-07T06:03:18;4.13;;;3.83;;
26594;SDS011;14238;49.496;8.154;2023-05-07T06:05:43;4.30;;;4.00;;
26594;SDS011;14238;49.496;8.154;2023-05-07T06:08:09;4.50;;;4.20;;
26594;SDS011;14238;49.496;8.154;2023-05-07T06:10:35;4.30;;;4.10;;
26594;SDS011;14238;49.496;8.154;2023-05-07T06:13:02;5.60;;;4.77;;
26594;SDS011;14238;49.496;8.154;2023-05-07T06:15:27;4.33;;;4.03;;
26594;SDS011;14238;49.496;8.154;2023-05-07T06:17:53;5.07;;;4.30;;
26594;SDS011;14238;49.496;8.154;2023-05-07T06:20:20;3.60;;;3.40;;
26594;SDS011;14238;49.496;8.154;2023-05-07T06:22:46;3.40;;;3.20;;
26594;SDS011;14238;49.496;8.154;2023-05-07T06:25:12;4.40;;;4.00;;
26594;SDS011;14238;49.496;8.154;2023-05-07T06:27:39;3.30;;;3.10;;
26594;SDS011;14238;49.496;8.154;2023-05-07T06:30:05;4.00;;;3.70;;
26594;SDS011;14238;49.496;8.154;2023-05-07T06:32:31;3.63;;;3.43;;
26594;SDS011;14238;49.496;8.154;2023-05-07T06:34:57;3.83;;;3.50;;
26594;SDS011;14238;49.496;8.154;2023-05-07T06:37:22;4.10;;;3.80;;
26594;SDS011;14238;49.496;8.154;2023-05-07T06:39:48;4.30;;;4.00;;
26594;SDS011;14238;49.496;8.154;2023-05-07T06:42:13;4.60;;;4.30;;
26594;SDS011;14238;49.496;8.154;2023-05-07T06:44:39;3.77;;;3.57;;
26594;SDS011;14238;49.496;8.154;2023-05-07T06:47:04;3.83;;;3.63;;
26594;SDS011;14238;49.496;8.154;2023-05-07T06:49:30;5.83;;;3.60;;
26594;SDS011;14238;49.496;8.154;2023-05-07T06:51:58;3.80;;;3.50;;
26594;SDS011;14238;49.496;8.154;2023-05-07T06:54:23;4.60;;;3.43;;
26594;SDS011;14238;49.496;8.154;2023-05-07T06:56:49;3.73;;;3.43;;
26594;SDS011;14238;49.496;8.154;2023-05-07T06:59:15;3.77;;;3.47;;
26594;SDS011;14238;49.496;8.154;2023-05-07T07:01:41;3.57;;;3.27;;
26594;SDS011;14238;49.496;8.154;2023-05-07T07:04:06;4.40;;;3.40;;
26594;SDS011;14238;49.496;8.154;2023-05-07T07:06:32;4.17;;;3.87;;
26594;SDS011;14238;49.496;8.154;2023-05-07T07:08:58;3.40;;;3.10;;
26594;SDS011;14238;49.496;8.154;2023-05-07T07:11:24;3.50;;;3.30;;
26594;SDS011;14238;49.496;8.154;2023-05-07T07:13:50;4.40;;;4.10;;
26594;SDS011;14238;49.496;8.154;2023-05-07T07:16:16;3.70;;;3.50;;
26594;SDS011;14238;49.496;8.154;2023-05-07T07:18:41;3.83;;;3.60;;
26594;SDS011;14238;49.496;8.154;2023-05-07T07:21:07;4.40;;;4.10;;
26594;SDS011;14238;49.496;8.154;2023-05-07T07:23:32;4.43;;;4.10;;
26594;SDS011;14238;49.496;8.154;2023-05-07T07:25:58;4.13;;;3.83;;
26594;SDS011;14238;49.496;8.154;2023-05-07T07:28:24;5.93;;;3.73;;
26594;SDS011;14238;49.496;8.154;2023-05-07T07:30:49;5.13;;;4.73;;
26594;SDS011;14238;49.496;8.154;2023-05-07T07:33:15;3.70;;;3.50;;
26594;SDS011;14238;49.496;8.154;2023-05-07T07:35:40;3.97;;;3.67;;
26594;SDS011;14238;49.496;8.154;2023-05-07T07:38:06;4.03;;;3.83;;
26594;SDS011;14238;49.496;8.154;2023-05-07T07:40:34;4.23;;;4.03;;
26594;SDS011;14238;49.496;8.154;2023-05-07T07:42:59;4.23;;;3.90;;
26594;SDS011;14238;49.496;8.154;2023-05-07T07:45:26;3.80;;;3.50;;
26594;SDS011;14238;49.496;8.154;2023-05-07T07:47:51;5.67;;;4.00;;
26594;SDS011;14238;49.496;8.154;2023-05-07T07:50:17;3.80;;;3.60;;
26594;SDS011;14238;49.496;8.154;2023-05-07T07:52:43;3.97;;;3.77;;
26594;SDS011;14238;49.496;8.154;2023-05-07T07:55:09;3.47;;;3.20;;
26594;SDS011;14238;49.496;8.154;2023-05-07T07:57:34;4.53;;;4.23;;
26594;SDS011;14238;49.496;8.154;2023-05-07T08:00:00;4.10;;;3.90;;
26594;SDS011;14238;49.496;8.154;2023-05-07T08:02:25;5.67;;;4.27;;
26594;SDS011;14238;49.496;8.154;2023-05-07T08:04:51;4.50;;;4.20;;
26594;SDS011;14238;49.496;8.154;2023-05-07T08:07:17;5.23;;;4.77;;
26594;SDS011;14238;49.496;8.154;2023-05-07T08:09:45;5.20;;;4.90;;
26594;SDS011;14238;49.496;8.154;2023-05-07T08:12:11;3.90;;;3.57;;
26594;SDS011;14238;49.496;8.154;2023-05-07T08:14:36;4.20;;;3.80;;
26594;SDS011;14238;49.496;8.154;2023-05-07T08:17:02;4.50;;;4.20;;
26594;SDS011;14238;49.496;8.154;2023-05-07T08:19:28;3.50;;;3.30;;
26594;SDS011;14238;49.496;8.154;2023-05-07T08:21:53;4.10;;;3.80;;
26594;SDS011;14238;49.496;8.154;2023-05-07T08:24:20;4.30;;;4.10;;
26594;SDS011;14238;49.496;8.154;2023-05-07T08:26:46;3.87;;;3.63;;
26594;SDS011;14238;49.496;8.154;2023-05-07T08:29:11;4.80;;;4.50;;
26594;SDS011;14238;49.496;8.154;2023-05-07T08:31:37;4.20;;;4.00;;
26594;SDS011;14238;49.496;8.154;2023-05-07T08:34:05;4.10;;;3.90;;
26594;SDS011;14238;49.496;8.154;2023-05-07T08:36:31;4.27;;;4.07;;
26594;SDS011;14238;49.496;8.154;2023-05-07T08:38:57;4.00;;;3.70;;
26594;SDS011;14238;49.496;8.154;2023-05-07T08:41:23;3.70;;;3.50;;
26594;SDS011;14238;49.496;8.154;2023-05-07T08:43:49;4.00;;;3.80;;
26594;SDS011;14238;49.496;8.154;2023-05-07T08:46:19;4.10;;;3.90;;
26594;SDS011;14238;49.496;8.154;2023-05-07T08:48:49;4.87;;;4.50;;
26594;SDS011;14238;49.496;8.154;2023-05-07T08:51:16;6.00;;;4.20;;
26594;SDS011;14238;49.496;8.154;2023-05-07T08:53:43;4.17;;;3.97;;
26594;SDS011;14238;49.496;8.154;2023-05-07T08:56:09;4.70;;;4.30;;
26594;SDS011;14238;49.496;8.154;2023-05-07T08:58:35;3.97;;;3.67;;
26594;SDS011;14238;49.496;8.154;2023-05-07T09:01:02;4.43;;;4.13;;
26594;SDS011;14238;49.496;8.154;2023-05-07T09:03:31;5.63;;;3.93;;
26594;SDS011;14238;49.496;8.154;2023-05-07T09:05:57;3.50;;;3.20;;
26594;SDS011;14238;49.496;8.154;2023-05-07T09:08:26;3.60;;;3.40;;
26594;SDS011;14238;49.496;8.154;2023-05-07T09:10:52;3.63;;;3.33;;
26594;SDS011;14238;49.496;8.154;2023-05-07T09:13:18;3.20;;;3.00;;
26594;SDS011;14238;49.496;8.154;2023-05-07T09:15:44;5.23;;;4.03;;
26594;SDS011;14238;49.496;8.154;2023-05-07T09:18:10;3.63;;;3.43;;
26594;SDS011;14238;49.496;8.154;2023-05-07T09:20:37;3.43;;;3.23;;
26594;SDS011;14238;49.496;8.154;2023-05-07T09:23:03;3.80;;;3.50;;
26594;SDS011;14238;49.496;8.154;2023-05-07T09:25:29;3.33;;;3.13;;
26594;SDS011;14238;49.496;8.154;2023-05-07T09:27:56;2.80;;;2.60;;
26594;SDS011;14238;49.496;8.154;2023-05-07T09:30:21;3.40;;;3.20;;
26594;SDS011;14238;49.496;8.154;2023-05-07T09:32:47;4.37;;;3.87;;
26594;SDS011;14238;49.496;8.154;2023-05-07T09:35:16;3.23;;;3.03;;
26594;SDS011;14238;49.496;8.154;2023-05-07T09:37:42;5.40;;;3.60;;
26594;SDS011;14238;49.496;8.154;2023-05-07T09:40:08;3.87;;;3.67;;
26594;SDS011;14238;49.496;8.154;2023-05-07T09:42:49;4.40;;;4.10;;
26594;SDS011;14238;49.496;8.154;2023-05-07T09:45:22;4.00;;;3.70;;
26594;SDS011;14238;49.496;8.154;2023-05-07T09:47:53;3.83;;;3.63;;
26594;SDS011;14238;49.496;8.154;2023-05-07T09:50:28;4.07;;;3.87;;
26594;SDS011;14238;49.496;8.154;2023-05-07T09:52:56;3.00;;;2.90;;
26594;SDS011;14238;49.496;8.154;2023-05-07T09:55:22;5.23;;;3.50;;
26594;SDS011;14238;49.496;8.154;2023-05-07T09:57:52;3.90;;;3.60;;
26594;SDS011;14238;49.496;8.154;2023-05-07T10:00:19;3.40;;;3.30;;
26594;SDS011;14238;49.496;8.154;2023-05-07T10:02:46;3.30;;;3.10;;
26594;SDS011;14238;49.496;8.154;2023-05-07T10:05:17;3.37;;;3.20;;
26594;SDS011;14238;49.496;8.154;2023-05-07T10:07:46;4.00;;;3.30;;
26594;SDS011;14238;49.496;8.154;2023-05-07T10:10:12;3.63;;;3.43;;
26594;SDS011;14238;49.496;8.154;2023-05-07T10:12:39;5.27;;;3.40;;
26594;SDS011;14238;49.496;8.154;2023-05-07T10:15:06;4.27;;;4.07;;
26594;SDS011;14238;49.496;8.154;2023-05-07T10:17:38;3.87;;;3.67;;
26594;SDS011;14238;49.496;8.154;2023-05-07T10:20:05;4.00;;;3.60;;
26594;SDS011;14238;49.496;8.154;2023-05-07T10:22:33;3.87;;;3.57;;
26594;SDS011;14238;49.496;8.154;2023-05-07T10:25:05;3.93;;;3.63;;
26594;SDS011;14238;49.496;8.154;2023-05-07T10:27:39;4.50;;;4.10;;
26594;SDS011;14238;49.496;8.154;2023-05-07T10:32:49;3.60;;;3.33;;
26594;SDS011;14238;49.496;8.154;2023-05-07T10:35:25;3.83;;;3.53;;
26594;SDS011;14238;49.496;8.154;2023-05-07T10:37:54;3.50;;;3.30;;
26594;SDS011;14238;49.496;8.154;2023-05-07T10:40:20;4.40;;;4.00;;
26594;SDS011;14238;49.496;8.154;2023-05-07T10:43:02;4.03;;;3.73;;
26594;SDS011;14238;49.496;8.154;2023-05-07T10:45:31;5.40;;;4.13;;
26594;SDS011;14238;49.496;8.154;2023-05-07T10:48:13;5.73;;;4.97;;
26594;SDS011;14238;49.496;8.154;2023-05-07T10:50:41;4.63;;;4.40;;
26594;SDS011;14238;49.496;8.154;2023-05-07T10:55:43;4.90;;;4.60;;
26594;SDS011;14238;49.496;8.154;2023-05-07T11:00:47;5.27;;;4.80;;
26594;SDS011;14238;49.496;8.154;2023-05-07T11:03:13;4.33;;;4.10;;
26594;SDS011;14238;49.496;8.154;2023-05-07T11:05:40;5.03;;;4.73;;
26594;SDS011;14238;49.496;8.154;2023-05-07T11:08:07;4.40;;;4.00;;
26594;SDS011;14238;49.496;8.154;2023-05-07T11:10:53;4.20;;;3.90;;
26594;SDS011;14238;49.496;8.154;2023-05-07T11:16:21;4.70;;;4.30;;
26594;SDS011;14238;49.496;8.154;2023-05-07T11:18:54;4.13;;;3.73;;
26594;SDS011;14238;49.496;8.154;2023-05-07T11:21:36;7.03;;;4.60;;
26594;SDS011;14238;49.496;8.154;2023-05-07T11:24:04;5.10;;;4.83;;
26594;SDS011;14238;49.496;8.154;2023-05-07T11:26:44;3.70;;;3.40;;
26594;SDS011;14238;49.496;8.154;2023-05-07T11:29:17;5.20;;;4.90;;
26594;SDS011;14238;49.496;8.154;2023-05-07T11:31:44;4.63;;;4.23;;
26594;SDS011;14238;49.496;8.154;2023-05-07T11:34:24;4.57;;;4.17;;
26594;SDS011;14238;49.496;8.154;2023-05-07T11:36:51;4.97;;;4.67;;
26594;SDS011;14238;49.496;8.154;2023-05-07T11:39:24;5.87;;;4.43;;
26594;SDS011;14238;49.496;8.154;2023-05-07T11:41:50;4.20;;;3.90;;
26594;SDS011;14238;49.496;8.154;2023-05-07T11:44:16;4.70;;;4.30;;
26594;SDS011;14238;49.496;8.154;2023-05-07T11:46:45;5.53;;;5.23;;
26594;SDS011;14238;49.496;8.154;2023-05-07T11:49:11;5.80;;;5.23;;
26594;SDS011;14238;49.496;8.154;2023-05-07T11:51:37;5.10;;;4.70;;
26594;SDS011;14238;49.496;8.154;2023-05-07T11:54:04;4.73;;;4.40;;
26594;SDS011;14238;49.496;8.154;2023-05-07T11:56:33;5.70;;;4.87;;
26594;SDS011;14238;49.496;8.154;2023-05-07T11:59:00;4.70;;;4.40;;
26594;SDS011;14238;49.496;8.154;2023-05-07T12:01:26;4.90;;;4.60;;
26594;SDS011;14238;49.496;8.154;2023-05-07T12:03:51;5.50;;;5.10;;
26594;SDS011;14238;49.496;8.154;2023-05-07T12:06:17;5.07;;;4.73;;
26594;SDS011;14238;49.496;8.154;2023-05-07T12:08:43;5.00;;;4.60;;
26594;SDS011;14238;49.496;8.154;2023-05-07T12:11:13;4.47;;;4.07;;
26594;SDS011;14238;49.496;8.154;2023-05-07T12:13:41;5.20;;;4.60;;
26594;SDS011;14238;49.496;8.154;2023-05-07T12:16:07;6.23;;;5.80;;
26594;SDS011;14238;49.496;8.154;2023-05-07T12:18:33;5.43;;;5.07;;
26594;SDS011;14238;49.496;8.154;2023-05-07T12:21:00;4.50;;;4.30;;
26594;SDS011;14238;49.496;8.154;2023-05-07T12:23:26;4.90;;;4.60;;
26594;SDS011;14238;49.496;8.154;2023-05-07T12:25:52;4.60;;;4.30;;
26594;SDS011;14238;49.496;8.154;2023-05-07T12:28:18;4.90;;;4.70;;
26594;SDS011;14238;49.496;8.154;2023-05-07T12:30:46;4.10;;;3.90;;
26594;SDS011;14238;49.496;8.154;2023-05-07T12:33:16;4.43;;;3.97;;
26594;SDS011;14238;49.496;8.154;2023-05-07T12:35:43;5.00;;;4.70;;
26594;SDS011;14238;49.496;8.154;2023-05-07T12:38:12;4.70;;;4.40;;
26594;SDS011;14238;49.496;8.154;2023-05-07T12:40:42;4.33;;;4.03;;
26594;SDS011;14238;49.496;8.154;2023-05-07T12:43:20;4.43;;;4.10;;
26594;SDS011;14238;49.496;8.154;2023-05-07T12:45:47;4.23;;;4.03;;
26594;SDS011;14238;49.496;8.154;2023-05-07T12:48:14;3.90;;;3.60;;
26594;SDS011;14238;49.496;8.154;2023-05-07T12:50:39;3.93;;;3.63;;
26594;SDS011;14238;49.496;8.154;2023-05-07T12:53:06;3.50;;;3.20;;
26594;SDS011;14238;49.496;8.154;2023-05-07T12:55:48;3.80;;;3.60;;
26594;SDS011;14238;49.496;8.154;2023-05-07T12:58:36;3.90;;;3.60;;
26594;SDS011;14238;49.496;8.154;2023-05-07T13:01:04;4.03;;;3.83;;
26594;SDS011;14238;49.496;8.154;2023-05-07T13:03:32;3.57;;;3.27;;
26594;SDS011;14238;49.496;8.154;2023-05-07T13:06:02;3.70;;;3.50;;
26594;SDS011;14238;49.496;8.154;2023-05-07T13:08:30;4.13;;;3.90;;
26594;SDS011;14238;49.496;8.154;2023-05-07T13:10:58;4.93;;;3.80;;
26594;SDS011;14238;49.496;8.154;2023-05-07T13:13:28;4.07;;;3.77;;
26594;SDS011;14238;49.496;8.154;2023-05-07T13:15:55;3.53;;;3.30;;
26594;SDS011;14238;49.496;8.154;2023-05-07T13:18:20;3.30;;;3.10;;
26594;SDS011;14238;49.496;8.154;2023-05-07T13:20:46;4.00;;;3.80;;
26594;SDS011;14238;49.496;8.154;2023-05-07T13:23:11;3.50;;;3.30;;
26594;SDS011;14238;49.496;8.154;2023-05-07T13:25:37;3.60;;;3.40;;
26594;SDS011;14238;49.496;8.154;2023-05-07T13:28:02;4.10;;;3.80;;
26594;SDS011;14238;49.496;8.154;2023-05-07T13:30:29;3.90;;;3.60;;
26594;SDS011;14238;49.496;8.154;2023-05-07T13:32:55;3.80;;;3.60;;
26594;SDS011;14238;49.496;8.154;2023-05-07T13:35:21;3.70;;;3.50;;
26594;SDS011;14238;49.496;8.154;2023-05-07T13:37:46;4.10;;;3.80;;
26594;SDS011;14238;49.496;8.154;2023-05-07T13:40:14;4.30;;;4.00;;
26594;SDS011;14238;49.496;8.154;2023-05-07T13:42:40;4.00;;;3.70;;
26594;SDS011;14238;49.496;8.154;2023-05-07T13:45:06;4.90;;;4.40;;
26594;SDS011;14238;49.496;8.154;2023-05-07T13:47:32;3.90;;;3.60;;
26594;SDS011;14238;49.496;8.154;2023-05-07T13:49:58;4.00;;;3.70;;
26594;SDS011;14238;49.496;8.154;2023-05-07T13:52:23;5.10;;;4.07;;
26594;SDS011;14238;49.496;8.154;2023-05-07T13:54:49;3.33;;;3.23;;
26594;SDS011;14238;49.496;8.154;2023-05-07T13:57:14;3.97;;;3.67;;
26594;SDS011;14238;49.496;8.154;2023-05-07T13:59:40;3.57;;;3.37;;
26594;SDS011;14238;49.496;8.154;2023-05-07T14:02:06;4.23;;;3.93;;
26594;SDS011;14238;49.496;8.154;2023-05-07T14:04:31;4.07;;;3.80;;
26594;SDS011;14238;49.496;8.154;2023-05-07T14:06:58;4.40;;;4.10;;
26594;SDS011;14238;49.496;8.154;2023-05-07T14:09:23;4.60;;;4.30;;
26594;SDS011;14238;49.496;8.154;2023-05-07T14:11:49;4.37;;;4.07;;
26594;SDS011;14238;49.496;8.154;2023-05-07T14:14:16;4.97;;;4.67;;
26594;SDS011;14238;49.496;8.154;2023-05-07T14:16:45;4.70;;;4.13;;
26594;SDS011;14238;49.496;8.154;2023-05-07T14:19:11;4.80;;;4.50;;
26594;SDS011;14238;49.496;8.154;2023-05-07T14:21:37;5.10;;;4.70;;
26594;SDS011;14238;49.496;8.154;2023-05-07T14:24:02;5.17;;;4.87;;
26594;SDS011;14238;49.496;8.154;2023-05-07T14:26:28;5.63;;;5.33;;
26594;SDS011;14238;49.496;8.154;2023-05-07T14:28:54;5.77;;;5.47;;
26594;SDS011;14238;49.496;8.154;2023-05-07T14:31:22;5.23;;;4.93;;
26594;SDS011;14238;49.496;8.154;2023-05-07T14:33:47;4.67;;;4.37;;
26594;SDS011;14238;49.496;8.154;2023-05-07T14:36:14;6.87;;;6.47;;
26594;SDS011;14238;49.496;8.154;2023-05-07T14:38:40;4.90;;;4.70;;
26594;SDS011;14238;49.496;8.154;2023-05-07T14:41:06;6.23;;;5.73;;
26594;SDS011;14238;49.496;8.154;2023-05-07T14:43:31;5.37;;;4.80;;
26594;SDS011;14238;49.496;8.154;2023-05-07T14:45:57;5.17;;;4.87;;
26594;SDS011;14238;49.496;8.154;2023-05-07T14:48:22;5.73;;;5.23;;
26594;SDS011;14238;49.496;8.154;2023-05-07T14:50:48;6.77;;;6.27;;
26594;SDS011;14238;49.496;8.154;2023-05-07T14:53:13;6.60;;;6.10;;
26594;SDS011;14238;49.496;8.154;2023-05-07T14:55:39;7.47;;;6.80;;